map of KJWN home
KJWN - Airport
Location
City:  Nashville, Tennessee, United States
Name:John C Tune Airport
ICAO:KJWN
FAA LID:JWN

Details
Type:Airport (Airfield)
Use:Public/Civil
Latitude:3610'59"N (36.183022)
Longitude:8653'11"W (-86.886494)
Datum:WGS 1984
Elevation:501 ft (153 m)
Variation:3.70W (WMM2015 magnetic declination)
-0.08 annual change
Runways:1
Longest:6001 × 100 ft (1829 × 30.5 m), paved

Weather
METAR:KJWN 131635Z AUTO 19008KT 10SM CLR 05/M10 A2991 RMK A01

Related Locations
Nearby:
Farthest:MQZ: 11190 mi / 18009 km
Margaret River [Margaret River Airport], WA, AU

Find:

   beyond  
but within

Other Information
Maps:
NOTAMs:
Links:
Sources:

  
flag of United States
flag of Tennessee
  

Sectional Chart

Flight Planning
at skyvector.com

Satellite Image

Google Maps Satellite view

 

Copyright © 2004-2017 Karl L. Swartz. All rights reserved.
The Great Circle Mapper name and logo are trademarks of the Great Circle Mapper.
All other trademarks mentioned herein belong to their respective owners.
Please see credits for attibutions and further copyright information.

  Follow gcmap on Facebook Follow gcmap on Twitter Follow gcmap on Google+ GCmap on LinkedIn

hCard Microformat

Geo Microformat